Vaaraa aiheuttavia sääilmiöitä ei ole odotettavissa.    Ei varoituksia

Webkamera Lisätietoa Webcam


Yksityisiä sääasemia lähellä:

Sääasema Juupajoki

Sääasema Orivesi

Sääasema Muurame

Sääasema Jyväskylä

Sääasema Vihtavuori


Löydät sääaseman tiedot myös:

Finland Weather Exchange

European Weather Network

Weather Underground

AWEKAS

Windy.com



Säätiedot lähimmiltä METAR asemilta

   
EFHA - Halli (Fin-Afb), Finland
Etäisyys asemalta: Kaakko 25 km
Päivitetty: 28.09.2020 16:50
Selkeää  
Selkeää  
   Tuuli: Kaakko 3.1 m/s
Tuuli: Kaakko 3.1 m/s
Lämpötila: 16°C
Kastepiste: 9°C
Kosteus: 63%
Ilmanpaine: 1019 hPa
Näkyvyys: Enemmän kuin 10 km
Pilvitiedot: Selkeää
EFHA 281350Z 13006KT CAVOK 16/09 Q1019
EFJY - Jyvaskyla (Mil/Civ), Finland
Etäisyys asemalta: Koillinen 75 km
Päivitetty: 28.09.2020 16:50
Selkeää  
Selkeää  
   Tuuli: Itäkaakko 4.1 m/s
Tuuli: Itäkaakko 4.1 m/s
Lämpötila: 16°C
Kastepiste: 9°C
Kosteus: 63%
Ilmanpaine: 1020 hPa
Näkyvyys: Enemmän kuin 10 km
Pilvitiedot: Selkeää
EFJY 281350Z AUTO 12008KT CAVOK 16/09 Q1020
EFTP - Tampere/Pirkkala, Finland
Etäisyys asemalta: Lounas 81 km
Päivitetty: 28.09.2020 16:50
Selkeää  
Selkeää  
   Tuuli: Itäkaakko 3.6 m/s
Tuuli: Itäkaakko 3.6 m/s
Lämpötila: 17°C
Kastepiste: 10°C
Kosteus: 64%
Ilmanpaine: 1019 hPa
Näkyvyys: Enemmän kuin 10 km
Pilvitiedot: Selkeää
EFTP 281350Z AUTO 12007KT 090V150 CAVOK 17/10 Q1019
EFSI - Seinajoki-Ilmajoki, Finland
Etäisyys asemalta: Luode 114 km
Päivitetty: 28.09.2020 16:50
Selkeää  
Selkeää  
   Tuuli: Itäkaakko 3.1 m/s
Tuuli: Itäkaakko 3.1 m/s
Lämpötila: 18°C
Kastepiste: 11°C
Kosteus: 64%
Ilmanpaine: 1018 hPa
Näkyvyys: Enemmän kuin 10 km
Pilvitiedot: Selkeää
EFSI 281350Z AUTO 12006KT 090V150 CAVOK 18/11 Q1018
EFMI - Mikkeli, Finland
Etäisyys asemalta: Itäkaakko 147 km
Päivitetty: 28.09.2020 16:50
Selkeää  
Selkeää  
   Tuuli: Itäkaakko 2.6 m/s
Tuuli: Itäkaakko 2.6 m/s
Lämpötila: 16°C
Kastepiste: 8°C
Kosteus: 59%
Ilmanpaine: 1021 hPa
Näkyvyys: Enemmän kuin 10 km
Pilvitiedot: Selkeää
EFMI 281350Z AUTO 11005KT CAVOK 16/08 Q1021
EFPO - Pori (Mil/Civ), Finland
Etäisyys asemalta: Länsilounas 154 km
Päivitetty: 28.09.2020 16:50
Selkeää  
Selkeää  
   Tuuli: Kaakko 3.6 m/s
Tuuli: Kaakko 3.6 m/s
Lämpötila: 19°C
Kastepiste: 11°C
Kosteus: 60%
Ilmanpaine: 1018 hPa
Näkyvyys: Enemmän kuin 10 km
Pilvitiedot: Selkeää
EFPO 281350Z AUTO 14007KT CAVOK 19/11 Q1018
EFUT - Utti (Fin-Afb), Finland
Etäisyys asemalta: Kaakko 180 km
Päivitetty: 28.09.2020 16:50
Selkeää  
Selkeää  
   Tuuli: Itä 3.6 m/s
Tuuli: Itä 3.6 m/s
Lämpötila: 17°C
Kastepiste: 8°C
Kosteus: 56%
Ilmanpaine: 1020 hPa
Näkyvyys: Enemmän kuin 10 km
Pilvitiedot: Selkeää
EFUT 281350Z AUTO 10007KT CAVOK 17/08 Q1020
EFVA - Vaasa, Finland
Etäisyys asemalta: Luode 180 km
Päivitetty: 28.09.2020 16:50
Selkeää  
Selkeää  
   Tuuli: Kaakko 2.1 m/s
Tuuli: Kaakko 2.1 m/s
Lämpötila: 19°C
Kastepiste: 13°C
Kosteus: 68%
Ilmanpaine: 1018 hPa
Näkyvyys: Enemmän kuin 10 km
Pilvitiedot: Selkeää
EFVA 281350Z AUTO 13004KT CAVOK 19/13 Q1018
EFHK - Helsinki/Vantaa, Finland
Etäisyys asemalta: Etelä 191 km
Päivitetty: 28.09.2020 16:50
Selkeää  
Selkeää  
   Tuuli: Itäkoillinen 3.1 m/s
Tuuli: Itäkoillinen 3.1 m/s
Lämpötila: 17°C
Kastepiste: 10°C
Kosteus: 64%
Ilmanpaine: 1018 hPa
Näkyvyys: Enemmän kuin 10 km
Pilvitiedot: Selkeää
EFHK 281350Z 07006KT CAVOK 17/10 Q1018 NOSIG

Alkuperäinen skripti  Saratoga-weather.org Sovitettu myös templatelle  Weerstation Leuven

Laitteet joita käytämme:

Sääasema
Davis VP2

Sääasemaohjelma
Cumulus

Sääaseman palvelin
HP ProBook 6460b

Palveluntarjoaja
Radicenter

Davis VP2

Cumulus

HP ProBook 6460b

Radicenter




Flag Counter Cumulus Top Weather Sites